createdAt,value
2019-05-06T00:01:36.211Z,74.20
2019-05-06T00:04:06.054Z,74.14
2019-05-06T00:06:36.075Z,74.13
2019-05-06T00:09:06.793Z,73.81
2019-05-06T00:11:36.967Z,73.80
2019-05-06T00:14:07.005Z,73.61
2019-05-06T00:16:36.945Z,73.03
2019-05-06T00:19:06.881Z,73.00
2019-05-06T00:21:36.816Z,73.23
2019-05-06T00:24:06.739Z,73.68
2019-05-06T00:26:56.931Z,73.18
2019-05-06T00:29:26.662Z,72.89
2019-05-06T00:31:56.600Z,72.73
2019-05-06T00:34:26.524Z,72.59
2019-05-06T00:36:56.468Z,72.34
2019-05-06T00:39:28.034Z,71.97
2019-05-06T00:42:05.558Z,71.66
2019-05-06T00:44:35.584Z,71.38
2019-05-06T00:47:05.513Z,71.33
2019-05-06T00:49:35.549Z,71.28
2019-05-06T00:52:05.486Z,71.49
2019-05-06T00:54:36.636Z,71.62
2019-05-06T00:57:06.582Z,71.63
2019-05-06T00:59:36.553Z,71.54
2019-05-06T01:02:06.443Z,71.57
2019-05-06T01:04:37.547Z,71.33
2019-05-06T01:07:07.341Z,71.46
2019-05-06T01:09:37.278Z,71.33
2019-05-06T01:12:07.675Z,71.28
2019-05-06T01:14:47.986Z,71.26
2019-05-06T01:17:17.889Z,71.35
2019-05-06T01:19:47.855Z,71.67
2019-05-06T01:22:17.787Z,71.64
2019-05-06T01:24:47.726Z,72.00
2019-05-06T01:27:17.755Z,72.56
2019-05-06T01:29:47.596Z,73.05
2019-05-06T01:32:17.520Z,73.22
2019-05-06T01:34:49.011Z,73.73
2019-05-06T01:37:20.573Z,74.27
2019-05-06T01:39:54.898Z,74.36
2019-05-06T01:42:26.471Z,74.36
2019-05-06T01:44:56.414Z,74.81
2019-05-06T01:47:26.340Z,75.07
2019-05-06T01:49:56.231Z,75.30
2019-05-06T01:52:26.209Z,74.93
2019-05-06T01:54:55.971Z,74.91
2019-05-06T01:57:25.979Z,74.83
2019-05-06T01:59:56.017Z,75.12
2019-05-06T02:02:25.945Z,75.13
2019-05-06T02:04:55.782Z,75.19
2019-05-06T02:07:26.075Z,75.26
2019-05-06T02:09:56.061Z,75.26
2019-05-06T02:12:26.008Z,75.13
2019-05-06T02:14:55.928Z,75.25
2019-05-06T02:17:25.862Z,75.28
2019-05-06T02:19:55.801Z,75.58
2019-05-06T02:22:36.371Z,75.78
2019-05-06T02:25:09.784Z,75.53
2019-05-06T02:27:39.824Z,75.75
2019-05-06T02:30:20.286Z,76.14
2019-05-06T02:33:08.248Z,75.75
2019-05-06T02:35:39.791Z,75.99
2019-05-06T02:38:11.286Z,75.85
2019-05-06T02:40:42.659Z,75.99
2019-05-06T02:43:13.595Z,76.32
2019-05-06T02:45:43.589Z,76.04
2019-05-06T02:48:15.195Z,76.41
2019-05-06T02:50:46.698Z,76.83
2019-05-06T02:53:19.274Z,76.80
2019-05-06T02:55:49.185Z,76.87
2019-05-06T02:58:19.135Z,76.44
2019-05-06T03:00:49.062Z,76.59
2019-05-06T03:03:19.205Z,76.36
2019-05-06T03:05:49.248Z,76.18
2019-05-06T03:08:19.069Z,75.55
2019-05-06T03:10:49.014Z,75.04
2019-05-06T03:13:18.943Z,74.31
2019-05-06T03:15:48.882Z,74.20
2019-05-06T03:18:23.291Z,73.03
2019-05-06T03:20:59.358Z,73.05
2019-05-06T03:23:34.465Z,72.83
2019-05-06T03:26:05.812Z,73.09
2019-05-06T03:28:34.305Z,73.58
2019-05-06T03:31:06.932Z,73.96
2019-05-06T03:33:55.166Z,73.76
2019-05-06T03:36:18.829Z,73.87
2019-05-06T03:38:39.041Z,73.72
2019-05-06T03:41:08.987Z,73.08
2019-05-06T03:43:43.074Z,72.73
2019-05-06T03:46:23.214Z,72.37
2019-05-06T03:49:03.609Z,71.93
2019-05-06T03:51:34.184Z,71.93
2019-05-06T03:54:04.957Z,71.33
2019-05-06T03:56:36.717Z,70.86
2019-05-06T03:59:08.346Z,71.05
2019-05-06T04:01:38.642Z,70.87
2019-05-06T04:04:08.566Z,71.00
2019-05-06T04:06:38.599Z,71.21
2019-05-06T04:09:08.506Z,71.45
2019-05-06T04:11:43.055Z,71.54
2019-05-06T04:14:14.057Z,71.49
2019-05-06T04:16:54.527Z,71.77
2019-05-06T04:19:33.490Z,71.88
2019-05-06T04:22:05.119Z,71.44
2019-05-06T04:24:53.976Z,71.45
2019-05-06T04:27:33.566Z,71.97
2019-05-06T04:30:04.662Z,71.83
2019-05-06T04:32:35.330Z,71.60
2019-05-06T04:35:05.684Z,70.65
2019-05-06T04:37:35.811Z,70.85
2019-05-06T04:40:07.499Z,70.74
2019-05-06T04:42:38.859Z,70.51
2019-05-06T04:45:09.193Z,70.04
2019-05-06T04:47:39.124Z,70.09
2019-05-06T04:50:09.583Z,69.91
2019-05-06T04:52:39.524Z,69.65
2019-05-06T04:55:09.729Z,69.68
2019-05-06T04:57:43.738Z,69.85
2019-05-06T05:00:13.256Z,69.21
2019-05-06T05:02:46.447Z,69.56
2019-05-06T05:05:15.019Z,69.30
2019-05-06T05:07:44.959Z,68.46
2019-05-06T05:10:16.625Z,67.90
2019-05-06T05:13:03.852Z,67.99
2019-05-06T05:15:41.838Z,67.42
2019-05-06T05:18:16.390Z,67.34
2019-05-06T05:20:46.915Z,66.60
2019-05-06T05:23:16.292Z,65.79
2019-05-06T05:25:46.307Z,65.11
2019-05-06T05:28:16.234Z,65.50
2019-05-06T05:30:46.077Z,64.45
2019-05-06T05:33:16.214Z,62.62
2019-05-06T05:35:46.069Z,62.63
2019-05-06T05:38:17.099Z,62.23
2019-05-06T05:40:47.042Z,61.63
2019-05-06T05:43:32.614Z,61.39
2019-05-06T05:46:03.273Z,62.03
2019-05-06T05:48:34.123Z,61.59
2019-05-06T05:51:03.443Z,61.06
2019-05-06T05:53:33.514Z,60.42
2019-05-06T05:56:04.129Z,59.79
2019-05-06T05:58:34.917Z,61.76
2019-05-06T06:01:04.820Z,61.08
2019-05-06T06:03:34.748Z,61.06
2019-05-06T06:06:04.596Z,61.31
2019-05-06T06:08:36.912Z,61.03
2019-05-06T06:11:07.826Z,62.79
2019-05-06T06:13:37.717Z,62.72
2019-05-06T06:16:09.240Z,60.99
2019-05-06T06:18:55.838Z,61.00
2019-05-06T06:21:32.136Z,60.61
2019-05-06T06:24:03.689Z,60.35
2019-05-06T06:26:34.131Z,60.13
2019-05-06T06:29:04.067Z,60.14
2019-05-06T06:31:36.246Z,57.42
2019-05-06T06:34:07.731Z,57.01
2019-05-06T06:36:57.498Z,57.21
2019-05-06T06:39:29.898Z,57.76
2019-05-06T06:41:59.916Z,57.94
2019-05-06T06:44:33.107Z,58.78
2019-05-06T06:47:03.369Z,57.99
2019-05-06T06:49:33.417Z,56.70
2019-05-06T06:52:05.657Z,54.46
2019-05-06T06:54:35.018Z,54.81
2019-05-06T06:57:09.430Z,53.17
2019-05-06T06:59:42.558Z,50.75
2019-05-06T07:02:32.876Z,49.04
2019-05-06T07:05:21.595Z,47.48
2019-05-06T07:07:46.613Z,50.02
2019-05-06T07:10:32.407Z,51.06
2019-05-06T07:13:03.104Z,48.57
2019-05-06T07:15:33.759Z,45.70
2019-05-06T07:18:03.852Z,46.19
2019-05-06T07:20:35.432Z,48.39
2019-05-06T07:23:22.233Z,48.99
2019-05-06T07:25:53.785Z,48.01
2019-05-06T07:28:24.876Z,46.73
2019-05-06T07:30:55.416Z,45.91
2019-05-06T07:33:25.572Z,46.97
2019-05-06T07:35:55.482Z,47.86
2019-05-06T07:38:26.929Z,48.81
2019-05-06T07:41:05.111Z,46.33
2019-05-06T07:43:55.154Z,44.69
2019-05-06T07:46:42.729Z,45.95
2019-05-06T07:49:13.022Z,44.38
2019-05-06T07:51:42.968Z,44.06
2019-05-06T07:54:12.891Z,44.00
2019-05-06T07:56:42.985Z,43.13
2019-05-06T07:59:12.923Z,44.46
2019-05-06T08:01:44.200Z,44.02
2019-05-06T08:04:14.267Z,42.96
2019-05-06T08:06:44.306Z,44.44
2019-05-06T08:09:14.238Z,44.79
2019-05-06T08:11:44.186Z,44.81
2019-05-06T08:14:14.114Z,44.38
2019-05-06T08:16:45.679Z,44.47
2019-05-06T08:19:15.718Z,43.40
2019-05-06T08:21:47.288Z,41.91
2019-05-06T08:24:17.222Z,40.40
2019-05-06T08:26:48.172Z,39.99
2019-05-06T08:29:18.832Z,40.11
2019-05-06T08:31:48.760Z,40.75
2019-05-06T08:34:18.702Z,40.05
2019-05-06T08:36:50.281Z,38.36
2019-05-06T08:39:22.022Z,40.45
2019-05-06T08:41:52.900Z,41.89
2019-05-06T08:44:23.052Z,41.45
2019-05-06T08:46:54.107Z,39.97
2019-05-06T08:49:24.038Z,39.63
2019-05-06T08:51:55.614Z,37.61
2019-05-06T08:54:36.083Z,37.18
2019-05-06T08:57:06.018Z,36.16
2019-05-06T08:59:35.948Z,34.79
2019-05-06T09:02:06.914Z,35.08
2019-05-06T09:04:36.939Z,35.35
2019-05-06T09:07:06.974Z,36.65
2019-05-06T09:09:36.925Z,36.34
2019-05-06T09:12:06.743Z,35.78
2019-05-06T09:14:36.688Z,35.44
2019-05-06T09:17:07.539Z,33.43
2019-05-06T09:19:37.581Z,33.46
2019-05-06T09:22:07.401Z,35.35
2019-05-06T09:24:37.344Z,33.81
2019-05-06T09:27:14.844Z,32.18
2019-05-06T09:29:46.416Z,31.83
2019-05-06T09:32:17.828Z,32.73
2019-05-06T09:34:58.165Z,36.31
2019-05-06T09:37:27.502Z,36.08
2019-05-06T09:39:57.305Z,35.68
2019-05-06T09:42:27.440Z,34.04
2019-05-06T09:44:57.386Z,29.32
2019-05-06T09:47:32.988Z,31.68
2019-05-06T09:50:03.291Z,36.15
2019-05-06T09:52:33.457Z,35.81
2019-05-06T09:55:04.319Z,30.13
2019-05-06T09:57:35.760Z,26.23
2019-05-06T10:00:07.753Z,21.85
2019-05-06T10:02:39.204Z,26.22
2019-05-06T10:05:08.652Z,26.22
2019-05-06T10:07:38.556Z,22.03
2019-05-06T10:10:08.894Z,22.53
2019-05-06T10:12:38.832Z,21.22
2019-05-06T10:15:09.031Z,22.90
2019-05-06T10:17:38.307Z,24.54
2019-05-06T10:20:08.381Z,23.38
2019-05-06T10:22:37.780Z,25.68
2019-05-06T10:25:07.782Z,23.77
2019-05-06T10:27:38.569Z,25.28
2019-05-06T10:30:12.971Z,28.66
2019-05-06T10:32:46.286Z,30.02
2019-05-06T10:35:16.635Z,31.26
2019-05-06T10:37:47.379Z,31.92
2019-05-06T10:40:25.711Z,31.38
2019-05-06T10:43:07.188Z,32.14
2019-05-06T10:45:37.136Z,33.39
2019-05-06T10:48:07.063Z,33.15
2019-05-06T10:50:41.819Z,30.43
2019-05-06T10:53:19.047Z,29.99
2019-05-06T10:55:56.818Z,32.73
2019-05-06T10:58:26.954Z,31.72
2019-05-06T11:01:12.581Z,30.55
2019-05-06T11:03:43.365Z,30.32
2019-05-06T11:06:14.977Z,30.97
2019-05-06T11:08:45.111Z,32.58
2019-05-06T11:11:24.834Z,30.75
2019-05-06T11:13:46.821Z,29.03
2019-05-06T11:16:17.113Z,29.36
2019-05-06T11:18:47.062Z,31.40
2019-05-06T11:21:16.926Z,31.67
2019-05-06T11:23:47.016Z,32.26
2019-05-06T11:26:17.094Z,30.21
2019-05-06T11:28:48.675Z,31.44
2019-05-06T11:31:29.267Z,33.62
2019-05-06T11:34:07.050Z,34.16
2019-05-06T11:36:42.588Z,33.52
2019-05-06T11:39:14.221Z,33.88
2019-05-06T11:41:59.193Z,33.52
2019-05-06T11:44:15.791Z,32.97
2019-05-06T11:46:47.462Z,30.32
2019-05-06T11:49:17.397Z,30.59
2019-05-06T11:51:47.337Z,30.89
2019-05-06T11:54:20.734Z,29.84
2019-05-06T11:56:52.619Z,30.12
2019-05-06T11:59:22.732Z,27.50
2019-05-06T12:02:03.748Z,27.33
2019-05-06T12:04:33.787Z,27.52
2019-05-06T12:07:11.040Z,30.35
2019-05-06T12:09:35.544Z,26.68
2019-05-06T12:12:05.422Z,27.99
2019-05-06T12:14:35.357Z,30.42
2019-05-06T12:17:06.370Z,30.01
2019-05-06T12:19:36.428Z,30.76
2019-05-06T12:22:06.391Z,32.11
2019-05-06T12:24:36.325Z,32.85
2019-05-06T12:27:06.290Z,32.90
2019-05-06T12:29:38.362Z,24.59
2019-05-06T12:32:15.227Z,19.62
2019-05-06T12:34:45.450Z,20.51
2019-05-06T12:37:16.373Z,26.93
2019-05-06T12:39:47.797Z,27.83
2019-05-06T12:42:29.086Z,27.97
2019-05-06T12:45:03.291Z,27.16
2019-05-06T12:47:34.071Z,28.52
2019-05-06T12:50:05.176Z,32.15
2019-05-06T12:52:35.070Z,32.09
2019-05-06T12:55:20.365Z,32.30
2019-05-06T12:57:38.929Z,31.74
2019-05-06T13:00:13.064Z,32.32
2019-05-06T13:02:43.857Z,32.38
2019-05-06T13:05:15.574Z,33.19
2019-05-06T13:07:47.154Z,34.15
2019-05-06T13:10:19.025Z,34.16
2019-05-06T13:12:50.612Z,34.27
2019-05-06T13:15:20.632Z,34.38
2019-05-06T13:17:50.571Z,34.36
2019-05-06T13:20:22.786Z,33.92
2019-05-06T13:22:53.848Z,32.37
2019-05-06T13:25:23.769Z,32.43
2019-05-06T13:27:53.708Z,33.09
2019-05-06T13:30:24.349Z,35.04
2019-05-06T13:33:04.704Z,36.17
2019-05-06T13:35:35.055Z,34.98
2019-05-06T13:38:05.087Z,33.47
2019-05-06T13:40:39.655Z,32.98
2019-05-06T13:43:14.053Z,33.24
2019-05-06T13:46:02.961Z,34.43
2019-05-06T13:48:50.238Z,34.41
2019-05-06T13:51:24.769Z,34.56
2019-05-06T13:53:55.733Z,34.95
2019-05-06T13:56:25.778Z,34.59
2019-05-06T13:58:55.698Z,34.26
2019-05-06T14:01:43.854Z,34.17
2019-05-06T14:04:16.953Z,33.96
2019-05-06T14:06:46.899Z,34.67
2019-05-06T14:09:28.690Z,34.18
2019-05-06T14:11:48.501Z,34.18
2019-05-06T14:14:18.532Z,33.38
2019-05-06T14:16:48.570Z,33.17
2019-05-06T14:19:18.697Z,33.73
2019-05-06T14:21:48.648Z,34.22
2019-05-06T14:24:18.781Z,34.63
2019-05-06T14:26:59.256Z,34.58
2019-05-06T14:29:42.124Z,33.12
2019-05-06T14:32:14.851Z,30.84
2019-05-06T14:34:43.909Z,29.87
2019-05-06T14:37:13.853Z,30.68
2019-05-06T14:39:55.543Z,30.91
2019-05-06T14:42:22.035Z,29.81
2019-05-06T14:44:51.502Z,29.67
2019-05-06T14:47:26.034Z,29.78
2019-05-06T14:49:55.974Z,30.51
2019-05-06T14:52:25.956Z,30.78
2019-05-06T14:54:57.468Z,30.65
2019-05-06T14:57:27.506Z,30.94
2019-05-06T14:59:57.454Z,30.61
2019-05-06T15:02:28.297Z,30.36
2019-05-06T15:04:58.449Z,30.35
2019-05-06T15:07:28.382Z,30.44
2019-05-06T15:10:16.557Z,30.52
2019-05-06T15:12:33.329Z,30.23
2019-05-06T15:15:03.805Z,30.33
2019-05-06T15:17:36.655Z,31.52
2019-05-06T15:20:06.758Z,31.95
2019-05-06T15:22:36.778Z,31.49
2019-05-06T15:25:07.737Z,31.64
2019-05-06T15:27:37.587Z,32.05
2019-05-06T15:30:12.288Z,31.43
2019-05-06T15:32:41.636Z,31.66
2019-05-06T15:35:22.810Z,32.24
2019-05-06T15:37:54.387Z,31.89
2019-05-06T15:40:32.382Z,31.92
2019-05-06T15:42:56.214Z,32.36
2019-05-06T15:45:28.705Z,33.17
2019-05-06T15:47:58.723Z,33.74
2019-05-06T15:50:28.768Z,34.17
2019-05-06T15:52:58.787Z,34.78
2019-05-06T15:55:32.139Z,35.73
2019-05-06T15:58:03.442Z,36.49
2019-05-06T16:00:33.322Z,37.02
2019-05-06T16:03:03.965Z,37.51
2019-05-06T16:05:34.460Z,38.10
2019-05-06T16:08:03.858Z,38.34
2019-05-06T16:10:50.383Z,39.01
2019-05-06T16:13:05.467Z,39.27
2019-05-06T16:15:35.586Z,39.98
2019-05-06T16:18:05.522Z,40.38
2019-05-06T16:20:35.549Z,40.67
2019-05-06T16:23:10.406Z,40.97
2019-05-06T16:25:42.307Z,41.00
2019-05-06T16:28:12.910Z,41.08
2019-05-06T16:30:43.048Z,41.57
2019-05-06T16:33:15.954Z,41.84
2019-05-06T16:35:44.673Z,41.72
2019-05-06T16:38:14.869Z,42.58
2019-05-06T16:40:45.425Z,43.62
2019-05-06T16:43:16.733Z,44.92
2019-05-06T16:45:46.659Z,45.68
2019-05-06T16:48:16.597Z,46.42
2019-05-06T16:50:47.615Z,46.61
2019-05-06T16:53:18.005Z,47.36
2019-05-06T16:56:02.238Z,47.88
2019-05-06T16:58:33.913Z,48.51
2019-05-06T17:01:04.039Z,48.90
2019-05-06T17:03:42.813Z,49.24
2019-05-06T17:06:22.908Z,48.80
2019-05-06T17:08:54.128Z,48.72
2019-05-06T17:11:30.279Z,48.20
2019-05-06T17:13:55.551Z,48.78
2019-05-06T17:16:25.578Z,49.64
2019-05-06T17:18:56.781Z,49.84
2019-05-06T17:21:27.425Z,50.29
2019-05-06T17:23:57.315Z,50.07
2019-05-06T17:26:27.361Z,50.06
2019-05-06T17:29:02.555Z,50.24
2019-05-06T17:31:39.001Z,50.48
2019-05-06T17:34:27.129Z,51.01
2019-05-06T17:36:58.709Z,51.67
2019-05-06T17:39:29.388Z,51.62
2019-05-06T17:41:59.636Z,51.80
2019-05-06T17:44:29.543Z,52.18
2019-05-06T17:47:07.683Z,52.38
2019-05-06T17:49:39.271Z,52.27
2019-05-06T17:52:14.003Z,53.05
2019-05-06T17:54:43.982Z,53.27
2019-05-06T17:57:13.918Z,53.39
2019-05-06T17:59:43.955Z,53.07
2019-05-06T18:02:15.479Z,53.33
2019-05-06T18:04:45.569Z,53.83
2019-05-06T18:07:15.507Z,54.22
2019-05-06T18:09:47.898Z,53.92
2019-05-06T18:12:18.867Z,53.57
2019-05-06T18:14:50.426Z,55.25
2019-05-06T18:17:22.025Z,55.51
2019-05-06T18:19:52.055Z,55.75
2019-05-06T18:22:22.742Z,56.04
2019-05-06T18:24:52.829Z,56.27
2019-05-06T18:27:22.810Z,56.83
2019-05-06T18:29:53.366Z,57.24
2019-05-06T18:32:23.532Z,57.54
2019-05-06T18:34:53.474Z,57.82
2019-05-06T18:37:24.031Z,57.00
2019-05-06T18:39:53.268Z,57.00
2019-05-06T18:42:25.552Z,56.11
2019-05-06T18:44:55.496Z,56.22
2019-05-06T18:47:25.514Z,56.27
2019-05-06T18:49:55.466Z,56.31
2019-05-06T18:52:25.386Z,56.48
2019-05-06T18:54:55.339Z,56.43
2019-05-06T18:57:25.330Z,56.84
2019-05-06T18:59:56.203Z,57.80
2019-05-06T19:02:27.011Z,59.95
2019-05-06T19:04:59.338Z,60.78
2019-05-06T19:07:29.280Z,61.21
2019-05-06T19:10:12.965Z,60.68
2019-05-06T19:12:42.908Z,61.23
2019-05-06T19:15:13.204Z,61.66
2019-05-06T19:17:44.350Z,61.70
2019-05-06T19:20:15.617Z,62.19
2019-05-06T19:22:45.661Z,61.16
2019-05-06T19:25:15.932Z,61.54
2019-05-06T19:27:45.935Z,61.16
2019-05-06T19:30:16.285Z,60.97
2019-05-06T19:32:46.473Z,61.03
2019-05-06T19:35:16.673Z,62.40
2019-05-06T19:37:46.715Z,63.30
2019-05-06T19:40:16.623Z,63.62
2019-05-06T19:42:50.022Z,63.85
2019-05-06T19:45:18.185Z,63.69
2019-05-06T19:47:48.016Z,63.94
2019-05-06T19:50:20.995Z,62.70
2019-05-06T19:52:49.838Z,62.44
2019-05-06T19:55:22.967Z,62.37
2019-05-06T19:57:52.679Z,62.85
2019-05-06T20:00:23.263Z,62.00
2019-05-06T20:02:53.301Z,62.37
2019-05-06T20:05:24.867Z,62.52
2019-05-06T20:07:59.415Z,63.26
2019-05-06T20:10:47.549Z,63.41
2019-05-06T20:13:20.672Z,63.27
2019-05-06T20:15:49.155Z,62.40
2019-05-06T20:18:19.201Z,61.62
2019-05-06T20:20:49.099Z,60.75
2019-05-06T20:23:19.060Z,60.86
2019-05-06T20:25:49.109Z,60.35
2019-05-06T20:28:20.028Z,59.51
2019-05-06T20:30:52.899Z,58.99
2019-05-06T20:33:22.996Z,58.62
2019-05-06T20:35:53.922Z,58.68
2019-05-06T20:38:23.786Z,58.50
2019-05-06T20:40:53.720Z,58.26
2019-05-06T20:43:24.138Z,58.50
2019-05-06T20:45:54.104Z,58.62
2019-05-06T20:48:24.015Z,58.70
2019-05-06T20:50:53.867Z,59.07
2019-05-06T20:53:23.695Z,59.27
2019-05-06T20:55:53.634Z,59.40
2019-05-06T20:58:23.563Z,59.50
2019-05-06T21:00:53.505Z,59.54
2019-05-06T21:03:23.539Z,59.53
2019-05-06T21:05:53.477Z,59.40
2019-05-06T21:08:23.407Z,59.53
2019-05-06T21:10:53.451Z,59.23
2019-05-06T21:13:31.892Z,59.57
2019-05-06T21:15:55.016Z,59.18
2019-05-06T21:18:24.986Z,59.28
2019-05-06T21:20:54.931Z,59.11
2019-05-06T21:23:25.264Z,59.11
2019-05-06T21:25:55.220Z,59.01
2019-05-06T21:28:25.138Z,59.19
2019-05-06T21:30:54.983Z,59.32
2019-05-06T21:33:25.010Z,59.77
2019-05-06T21:35:54.942Z,59.70
2019-05-06T21:38:24.883Z,59.54
2019-05-06T21:40:54.820Z,60.00
2019-05-06T21:43:24.747Z,60.56
2019-05-06T21:45:54.684Z,60.94
2019-05-06T21:48:24.619Z,61.20
2019-05-06T21:50:54.560Z,62.36
2019-05-06T21:53:24.692Z,63.42
2019-05-06T21:55:54.595Z,64.32
2019-05-06T21:58:24.566Z,64.90
2019-05-06T22:00:56.541Z,65.36
2019-05-06T22:03:26.586Z,65.24
2019-05-06T22:05:56.520Z,65.57
2019-05-06T22:08:26.454Z,65.80
2019-05-06T22:10:56.387Z,66.26
2019-05-06T22:13:26.422Z,66.89
2019-05-06T22:15:56.456Z,66.68
2019-05-06T22:18:26.605Z,67.20
2019-05-06T22:21:06.965Z,67.66
2019-05-06T22:23:42.079Z,67.94
2019-05-06T22:26:16.007Z,68.41
2019-05-06T22:28:43.823Z,68.23
2019-05-06T22:31:13.740Z,68.89
2019-05-06T22:33:43.806Z,69.04
2019-05-06T22:36:13.738Z,69.06
2019-05-06T22:38:44.301Z,68.85
2019-05-06T22:41:14.621Z,68.98
2019-05-06T22:43:44.562Z,69.31
2019-05-06T22:46:14.600Z,69.70
2019-05-06T22:48:44.530Z,69.33
2019-05-06T22:51:15.483Z,69.35
2019-05-06T22:53:46.861Z,69.09
2019-05-06T22:56:16.792Z,69.25
2019-05-06T22:58:46.833Z,69.05
2019-05-06T23:01:18.317Z,69.46
2019-05-06T23:03:49.873Z,70.29
2019-05-06T23:06:21.892Z,70.17
2019-05-06T23:08:52.679Z,70.16
2019-05-06T23:11:22.648Z,69.50
2019-05-06T23:13:53.011Z,69.27
2019-05-06T23:16:22.328Z,69.43
2019-05-06T23:18:52.491Z,69.73
2019-05-06T23:21:23.214Z,69.84
2019-05-06T23:23:54.743Z,69.51
2019-05-06T23:26:24.623Z,70.43
2019-05-06T23:28:54.430Z,70.29
2019-05-06T23:31:24.657Z,70.38
2019-05-06T23:33:54.819Z,70.38
2019-05-06T23:36:24.839Z,70.43
2019-05-06T23:39:34.461Z,70.67
2019-05-06T23:42:53.352Z,70.67
2019-05-06T23:45:59.844Z,71.08
2019-05-06T23:49:05.877Z,71.08
2019-05-06T23:52:12.079Z,71.87
2019-05-06T23:55:18.565Z,71.63
2019-05-06T23:57:47.267Z,72.48
